Time;durP1;ratioP1;P1;durP2;ratioP2;P2;SDS_P1;SDS_P2;PMS_P1;PMS_P2;Temp;Humidity;BMP_temperature;BMP_pressure;BME280_temperature;BME280_humidity;BME280_pressure;Samples;Min_cycle;Max_cycle;Signal;HPM_P1;HPM_P2
2022/01/28 00:01:35;;;;;;;2.55;2.45;;;2.30;99.90;;;;;;5014078;28;20069;-58
2022/01/28 00:04:11;;;;;;;2.10;2.00;;;2.30;99.90;;;;;;5014785;28;20097;-58
2022/01/28 00:06:37;;;;;;;2.97;2.75;;;2.30;99.90;;;;;;5014924;28;20030;-58
2022/01/28 00:09:03;;;;;;;2.55;2.35;;;2.20;99.90;;;;;;5015053;28;20045;-58
2022/01/28 00:11:29;;;;;;;2.58;2.38;;;2.20;99.90;;;;;;5014755;28;20029;-58
2022/01/28 00:14:05;;;;;;;2.78;2.58;;;2.10;99.90;;;;;;5014730;28;20469;-56
2022/01/28 00:38:05;;;;;;;2.30;2.20;;;2.00;99.90;;;;;;5034247;28;20079;-58
2022/01/28 00:40:32;;;;;;;2.28;2.17;;;2.00;99.90;;;;;;5034105;28;20021;-58
2022/01/28 00:42:58;;;;;;;2.10;2.00;;;2.10;99.90;;;;;;5034087;28;20175;-58
2022/01/28 00:45:24;;;;;;;2.35;2.25;;;2.10;99.90;;;;;;5033989;28;20116;-58
2022/01/28 00:47:50;;;;;;;2.22;2.13;;;2.10;99.90;;;;;;5033462;28;20033;-58
2022/01/28 00:50:16;;;;;;;2.15;2.05;;;2.10;99.90;;;;;;5033220;28;20385;-58
2022/01/28 00:52:42;;;;;;;2.22;2.13;;;2.10;99.90;;;;;;5033893;28;20029;-58
2022/01/28 00:55:08;;;;;;;3.28;1.90;;;2.10;99.90;;;;;;5033776;28;20029;-58
2022/01/28 00:57:34;;;;;;;3.60;2.22;;;2.10;99.90;;;;;;5033949;28;20040;-56
2022/01/28 00:59:59;;;;;;;1.92;1.83;;;2.10;99.90;;;;;;5033084;28;20033;-58
2022/01/28 01:02:25;;;;;;;2.08;1.98;;;2.10;99.90;;;;;;5032937;28;20104;-58
2022/01/28 01:04:51;;;;;;;2.10;2.00;;;2.10;99.90;;;;;;5033355;28;20029;-58
2022/01/28 01:07:16;;;;;;;2.08;1.98;;;2.10;99.90;;;;;;5033759;28;20064;-58
2022/01/28 01:09:43;;;;;;;1.90;1.85;;;2.20;99.90;;;;;;5033591;28;20026;-58
2022/01/28 01:12:26;;;;;;;1.77;1.67;;;2.20;99.90;;;;;;5033553;28;20036;-58
2022/01/28 01:14:52;;;;;;;2.17;2.08;;;2.20;99.90;;;;;;5033443;28;20034;-58
2022/01/28 01:19:54;;;;;;;2.30;2.20;;;2.20;99.90;;;;;;5032885;28;20154;-55
2022/01/28 01:22:20;;;;;;;2.30;2.20;;;2.30;99.90;;;;;;5031860;28;20079;-58
2022/01/28 01:24:52;;;;;;;2.17;2.08;;;2.20;99.90;;;;;;5014084;28;20655;-58
2022/01/28 01:27:19;;;;;;;2.38;2.28;;;2.30;99.90;;;;;;5026747;28;20041;-57
2022/01/28 01:29:46;;;;;;;2.78;2.58;;;2.40;99.90;;;;;;5016591;28;20385;-58
2022/01/28 01:32:17;;;;;;;3.20;2.90;;;2.40;99.90;;;;;;5019203;28;20080;-58
2022/01/28 01:34:43;;;;;;;3.90;3.58;;;2.50;99.90;;;;;;5012933;28;20045;-58
2022/01/28 01:37:10;;;;;;;4.88;4.20;;;2.50;99.90;;;;;;5019539;28;20017;-57
2022/01/28 01:39:38;;;;;;;4.63;4.22;;;2.60;99.90;;;;;;5030948;28;20026;-57
2022/01/28 01:42:13;;;;;;;4.90;4.15;;;2.70;99.90;;;;;;5032850;28;20031;-56
2022/01/28 01:45:17;;;;;;;6.13;5.63;;;2.70;99.90;;;;;;5032066;28;20035;-57
2022/01/28 01:53:07;;;;;;;11.00;8.10;;;2.80;99.90;;;;;;5012859;28;20061;-58
2022/01/28 01:55:32;;;;;;;14.23;8.60;;;2.80;99.90;;;;;;5012311;28;20373;-57
2022/01/28 01:57:58;;;;;;;23.05;11.68;;;2.80;99.90;;;;;;5012820;28;20390;-57
2022/01/28 02:00:24;;;;;;;11.02;7.90;;;2.90;99.90;;;;;;5012901;28;20030;-58
2022/01/28 02:02:49;;;;;;;18.00;9.93;;;2.90;99.90;;;;;;5012775;28;20038;-57
2022/01/28 02:05:15;;;;;;;34.60;14.85;;;2.90;99.90;;;;;;5012675;28;20032;-56
2022/01/28 02:07:45;;;;;;;24.65;12.32;;;2.90;99.90;;;;;;5012725;28;20030;-57
2022/01/28 02:10:11;;;;;;;11.82;8.63;;;2.90;99.90;;;;;;5011470;28;20028;-57
2022/01/28 02:12:49;;;;;;;14.13;9.02;;;2.90;99.90;;;;;;5012141;28;20030;-57
2022/01/28 02:15:16;;;;;;;25.95;13.05;;;3.00;99.90;;;;;;5012128;28;20057;-57
2022/01/28 02:17:42;;;;;;;12.15;9.27;;;3.00;99.90;;;;;;5012475;28;20093;-57
2022/01/28 02:20:11;;;;;;;13.05;8.10;;;2.90;99.90;;;;;;5012136;28;20112;-58
2022/01/28 02:22:36;;;;;;;16.80;9.20;;;2.90;99.90;;;;;;5011947;28;20030;-57
2022/01/28 02:25:02;;;;;;;15.82;8.55;;;3.00;99.90;;;;;;5011708;28;20101;-57
2022/01/28 02:27:28;;;;;;;18.13;9.85;;;2.90;99.90;;;;;;5031091;28;20034;-57
2022/01/28 02:29:55;;;;;;;13.90;8.05;;;2.90;99.90;;;;;;5031325;28;20039;-58
2022/01/28 02:32:22;;;;;;;27.58;10.65;;;2.90;99.90;;;;;;5031842;28;20037;-57
2022/01/28 02:34:47;;;;;;;11.30;7.97;;;2.90;99.90;;;;;;5030010;28;20045;-57
2022/01/28 02:37:13;;;;;;;45.08;17.25;;;2.90;99.90;;;;;;5023150;28;20656;-57
2022/01/28 02:39:39;;;;;;;41.13;16.60;;;2.90;99.90;;;;;;5012106;28;20377;-58
2022/01/28 02:42:15;;;;;;;18.13;10.43;;;2.90;99.90;;;;;;5024189;28;20478;-57
2022/01/28 02:44:49;;;;;;;19.17;11.65;;;2.90;99.90;;;;;;5030331;28;20052;-57
2022/01/28 02:47:18;;;;;;;20.40;10.88;;;2.90;99.90;;;;;;5031276;28;20636;-58
2022/01/28 02:49:45;;;;;;;16.92;9.50;;;2.90;99.90;;;;;;5031812;28;20057;-57
2022/01/28 02:52:19;;;;;;;24.42;11.93;;;2.90;99.90;;;;;;5031244;28;20025;-57
2022/01/28 02:54:47;;;;;;;40.63;15.48;;;2.80;99.90;;;;;;5013035;28;20022;-58
2022/01/28 02:57:17;;;;;;;18.55;9.98;;;2.80;99.90;;;;;;5012087;28;20058;-57
2022/01/28 02:59:42;;;;;;;44.90;22.38;;;2.90;99.90;;;;;;5011800;28;20046;-57
2022/01/28 03:02:08;;;;;;;10.70;8.07;;;2.90;99.90;;;;;;5011559;28;20061;-57
2022/01/28 03:07:11;;;;;;;10.80;8.45;;;2.90;99.90;;;;;;5011400;28;20374;-58
2022/01/28 03:12:33;;;;;;;13.57;10.68;;;2.90;99.90;;;;;;5020358;28;20092;-57
2022/01/28 03:15:03;;;;;;;15.75;9.40;;;2.80;99.90;;;;;;5010613;28;20045;-58
2022/01/28 03:22:44;;;;;;;13.57;9.00;;;2.90;99.90;;;;;;5011843;28;20110;-57
2022/01/28 03:25:10;;;;;;;10.52;9.43;;;2.90;99.90;;;;;;5012342;28;20104;-58
2022/01/28 03:27:54;;;;;;;13.18;8.38;;;2.90;99.90;;;;;;5015171;28;20029;-58
2022/01/28 03:30:20;;;;;;;12.18;10.02;;;2.90;99.90;;;;;;5024539;28;20029;-57
2022/01/28 03:32:46;;;;;;;10.45;8.57;;;2.90;99.90;;;;;;5035409;28;20112;-58
2022/01/28 03:35:14;;;;;;;11.23;8.68;;;2.90;99.90;;;;;;5035379;28;20492;-58
2022/01/28 03:37:40;;;;;;;11.35;8.23;;;2.90;99.90;;;;;;5035406;28;20457;-57
2022/01/28 03:40:07;;;;;;;15.25;8.35;;;2.90;99.90;;;;;;5033645;28;20159;-57
2022/01/28 03:42:36;;;;;;;9.75;8.15;;;2.90;99.90;;;;;;5029941;28;20116;-57
2022/01/28 03:45:02;;;;;;;8.95;8.05;;;2.90;99.90;;;;;;5033661;28;20437;-57
2022/01/28 03:47:28;;;;;;;11.73;8.48;;;2.90;99.90;;;;;;5033259;28;20024;-57
2022/01/28 03:49:53;;;;;;;8.82;7.88;;;2.80;99.90;;;;;;5022871;28;20021;-56
2022/01/28 03:52:19;;;;;;;10.25;8.52;;;2.90;99.90;;;;;;5022449;28;20029;-57
2022/01/28 03:54:45;;;;;;;10.80;9.27;;;2.90;99.90;;;;;;5013744;28;20100;-58
2022/01/28 03:57:10;;;;;;;9.52;8.52;;;2.90;99.90;;;;;;5030649;28;20052;-56
2022/01/28 03:59:36;;;;;;;9.50;8.55;;;2.90;99.90;;;;;;5034678;28;20049;-57
2022/01/28 04:02:05;;;;;;;11.25;8.52;;;2.90;99.90;;;;;;5034549;28;20034;-56
2022/01/28 04:12:29;;;;;;;8.30;7.50;;;2.80;99.90;;;;;;5015379;28;20116;-56
2022/01/28 04:17:29;;;;;;;9.32;7.55;;;2.90;99.90;;;;;;5014378;28;20036;-56
2022/01/28 04:19:54;;;;;;;8.77;7.20;;;2.80;99.90;;;;;;5013186;28;20117;-56
2022/01/28 04:22:21;;;;;;;8.70;7.72;;;2.90;99.90;;;;;;5014833;28;20014;-57
2022/01/28 04:24:46;;;;;;;10.32;7.82;;;2.90;99.90;;;;;;5014421;28;20553;-57
2022/01/28 04:27:12;;;;;;;8.75;7.18;;;2.90;99.90;;;;;;5014698;28;20105;-57
2022/01/28 04:29:38;;;;;;;11.27;7.95;;;2.90;99.90;;;;;;5014545;28;20026;-57
2022/01/28 04:32:04;;;;;;;9.32;7.88;;;2.80;99.90;;;;;;5013624;28;20022;-57
2022/01/28 04:34:30;;;;;;;9.60;8.60;;;2.80;99.90;;;;;;5014590;28;20497;-56
2022/01/28 04:37:17;;;;;;;11.13;7.75;;;2.80;99.90;;;;;;5013530;28;20056;-56
2022/01/28 04:47:39;;;;;;;14.57;8.13;;;2.80;99.90;;;;;;5033811;28;20111;-56
2022/01/28 04:50:16;;;;;;;;;;;2.80;99.90;;;;;;5034044;28;20018;-56
2022/01/28 05:08:59;;;;;;;26.40;14.23;;;2.80;99.90;;;;;;5027216;28;20029;-57
2022/01/28 05:27:21;;;;;;;12.13;8.27;;;2.30;99.90;;;;;;5050348;28;20069;-57
2022/01/28 05:29:46;;;;;;;16.60;10.25;;;2.30;99.90;;;;;;5032679;28;20040;-56
2022/01/28 05:32:12;;;;;;;10.27;8.32;;;2.30;99.90;;;;;;5033196;28;20033;-56
2022/01/28 05:34:39;;;;;;;12.43;7.10;;;2.30;99.90;;;;;;5033242;28;20017;-58
2022/01/28 05:37:05;;;;;;;10.10;8.20;;;2.40;99.90;;;;;;5033053;28;20030;-55
2022/01/28 05:39:31;;;;;;;10.07;7.15;;;2.40;99.90;;;;;;5033089;28;20029;-56
2022/01/28 05:41:56;;;;;;;8.85;7.95;;;2.40;99.90;;;;;;5032680;28;20091;-55
2022/01/28 05:44:23;;;;;;;9.73;8.13;;;2.50;99.90;;;;;;5032354;28;20083;-57
2022/01/28 05:46:49;;;;;;;12.40;6.97;;;2.50;99.90;;;;;;5032804;28;20112;-57
2022/01/28 05:49:16;;;;;;;9.15;6.70;;;2.60;99.90;;;;;;5032680;28;20056;-57
2022/01/28 05:51:43;;;;;;;10.48;7.05;;;2.60;99.90;;;;;;5033070;28;20033;-56
2022/01/28 05:54:09;;;;;;;9.95;7.85;;;2.50;99.90;;;;;;5032437;28;20445;-57
2022/01/28 05:56:35;;;;;;;10.73;7.63;;;2.40;99.90;;;;;;5028781;28;20454;-57
2022/01/28 05:59:01;;;;;;;9.10;6.88;;;2.20;99.90;;;;;;5012430;28;20108;-56
2022/01/28 06:01:27;;;;;;;12.13;10.00;;;2.10;99.90;;;;;;5012993;28;20699;-57
2022/01/28 06:03:53;;;;;;;9.38;6.93;;;2.00;99.90;;;;;;5025036;28;20448;-57
2022/01/28 06:06:22;;;;;;;10.52;7.43;;;2.00;99.90;;;;;;5030667;28;20488;-58
2022/01/28 06:08:50;;;;;;;10.88;9.48;;;2.00;99.90;;;;;;5020964;28;20428;-57
2022/01/28 06:11:16;;;;;;;15.80;10.05;;;2.00;99.90;;;;;;5032410;28;20537;-57
2022/01/28 06:13:42;;;;;;;8.98;5.32;;;1.90;99.90;;;;;;5016015;28;20040;-57
2022/01/28 06:16:12;;;;;;;6.28;5.68;;;1.90;99.90;;;;;;5010619;28;20092;-56
2022/01/28 06:18:38;;;;;;;24.38;12.63;;;1.90;99.90;;;;;;5012742;28;20029;-57
2022/01/28 06:21:04;;;;;;;11.27;8.07;;;2.00;99.90;;;;;;5012280;28;20373;-57
2022/01/28 06:23:31;;;;;;;11.43;8.32;;;2.10;99.90;;;;;;5012559;28;20026;-57
2022/01/28 06:25:56;;;;;;;17.23;10.18;;;2.20;99.90;;;;;;5028254;28;20428;-57
2022/01/28 06:28:22;;;;;;;15.43;8.88;;;2.20;99.90;;;;;;5032193;28;20049;-57
2022/01/28 06:30:48;;;;;;;21.83;10.57;;;2.20;99.90;;;;;;5032101;28;20025;-56
2022/01/28 06:33:14;;;;;;;14.68;8.85;;;2.30;99.90;;;;;;5031941;28;20037;-58
2022/01/28 06:35:44;;;;;;;9.02;5.95;;;2.20;99.90;;;;;;5032071;28;20017;-57
2022/01/28 06:38:11;;;;;;;18.23;9.00;;;2.30;99.90;;;;;;5032034;28;20022;-57
2022/01/28 06:40:37;;;;;;;23.35;12.68;;;2.20;99.90;;;;;;5032211;28;20048;-58
2022/01/28 06:43:03;;;;;;;10.68;6.13;;;2.20;99.90;;;;;;5031856;28;20560;-57
2022/01/28 06:45:29;;;;;;;10.63;7.78;;;2.30;99.90;;;;;;5031864;28;20036;-57
2022/01/28 06:47:55;;;;;;;14.82;7.82;;;2.30;99.90;;;;;;5031583;28;20026;-58
2022/01/28 06:50:20;;;;;;;14.25;9.50;;;2.20;99.90;;;;;;5031647;28;20064;-58
2022/01/28 06:52:46;;;;;;;9.20;6.30;;;2.20;99.90;;;;;;5031745;28;20029;-57
2022/01/28 06:55:14;;;;;;;9.80;7.07;;;2.30;99.90;;;;;;5031648;28;20040;-57
2022/01/28 06:57:40;;;;;;;10.13;6.88;;;2.30;99.90;;;;;;5031696;28;20105;-58
2022/01/28 07:00:08;;;;;;;7.78;6.57;;;2.40;99.90;;;;;;5030481;28;20048;-58
2022/01/28 07:02:34;;;;;;;9.98;7.70;;;2.30;99.90;;;;;;5014366;28;20030;-57
2022/01/28 07:04:59;;;;;;;13.88;8.00;;;2.30;99.90;;;;;;5011168;28;20049;-57
2022/01/28 07:07:26;;;;;;;6.30;5.53;;;2.30;99.90;;;;;;5011950;28;20018;-57
2022/01/28 07:09:52;;;;;;;8.30;6.50;;;2.30;99.90;;;;;;5046217;28;20088;-58
2022/01/28 07:12:19;;;;;;;6.60;5.90;;;2.30;99.90;;;;;;5023587;28;20044;-58
2022/01/28 07:14:45;;;;;;;8.45;7.05;;;2.30;99.90;;;;;;5030562;28;20038;-57
2022/01/28 07:17:10;;;;;;;6.80;6.10;;;2.40;99.90;;;;;;5031395;28;20507;-57
2022/01/28 07:19:36;;;;;;;13.90;7.43;;;2.40;99.90;;;;;;5028386;28;20031;-57
2022/01/28 07:22:02;;;;;;;10.27;8.60;;;2.40;99.90;;;;;;5012001;28;20030;-58
2022/01/28 07:24:29;;;;;;;10.43;6.68;;;2.40;99.90;;;;;;5022121;28;20034;-58
2022/01/28 07:26:54;;;;;;;10.63;6.80;;;2.50;99.90;;;;;;5011430;28;20022;-58
2022/01/28 07:29:22;;;;;;;9.55;6.75;;;2.50;99.90;;;;;;5026465;28;20435;-57
2022/01/28 07:31:48;;;;;;;8.07;6.22;;;2.50;99.90;;;;;;5030756;28;20067;-56
2022/01/28 07:34:14;;;;;;;12.10;7.65;;;2.60;99.90;;;;;;5031322;28;20049;-57
2022/01/28 07:36:40;;;;;;;8.30;6.55;;;2.50;99.90;;;;;;5031405;28;20083;-56
2022/01/28 07:39:07;;;;;;;12.55;6.35;;;2.50;99.90;;;;;;5031383;28;20503;-57
2022/01/28 07:41:37;;;;;;;10.18;6.60;;;2.60;99.90;;;;;;5016088;28;20053;-57
2022/01/28 07:44:03;;;;;;;9.25;5.90;;;2.60;99.90;;;;;;5010944;28;20026;-57
2022/01/28 07:46:28;;;;;;;7.53;5.72;;;2.60;99.90;;;;;;5011502;28;20053;-57
2022/01/28 07:48:54;;;;;;;8.95;5.50;;;2.70;99.90;;;;;;5011325;28;20461;-57
2022/01/28 07:51:20;;;;;;;9.82;5.90;;;2.60;99.90;;;;;;5010929;28;20037;-57
2022/01/28 07:53:46;;;;;;;11.05;7.68;;;2.70;99.90;;;;;;5011012;28;20022;-57
2022/01/28 07:56:13;;;;;;;8.05;6.03;;;2.70;99.90;;;;;;5011381;28;20038;-56
2022/01/28 07:58:39;;;;;;;8.20;5.72;;;2.70;99.90;;;;;;5011154;28;20188;-58
2022/01/28 08:01:04;;;;;;;17.70;7.90;;;2.70;99.90;;;;;;5011367;28;20104;-57
2022/01/28 08:03:30;;;;;;;8.10;5.55;;;2.70;99.90;;;;;;5011344;28;20026;-58
2022/01/28 08:05:56;;;;;;;6.53;5.53;;;2.70;99.90;;;;;;5011153;28;20026;-57
2022/01/28 08:08:22;;;;;;;7.88;6.10;;;2.70;99.90;;;;;;5010019;28;20030;-57
2022/01/28 08:10:48;;;;;;;7.95;5.45;;;2.70;99.90;;;;;;5011027;28;20113;-55
2022/01/28 08:13:14;;;;;;;10.27;6.03;;;2.70;99.90;;;;;;5014070;28;20016;-58
2022/01/28 08:15:40;;;;;;;11.45;6.38;;;2.70;99.90;;;;;;5014583;28;20139;-58
2022/01/28 08:18:08;;;;;;;10.95;6.68;;;2.70;99.90;;;;;;5030120;28;20595;-58
2022/01/28 08:20:34;;;;;;;10.68;6.22;;;2.80;99.90;;;;;;5034706;28;20140;-59
2022/01/28 08:23:00;;;;;;;11.27;6.55;;;2.80;99.90;;;;;;5034492;28;20025;-58
2022/01/28 08:25:28;;;;;;;8.70;5.80;;;2.80;99.90;;;;;;5032266;28;20465;-58
2022/01/28 08:27:54;;;;;;;9.85;7.15;;;2.80;99.90;;;;;;5034554;28;20068;-57
2022/01/28 08:30:23;;;;;;;8.15;5.80;;;2.90;99.90;;;;;;5032773;28;20029;-58
2022/01/28 08:32:49;;;;;;;8.52;6.35;;;2.90;99.90;;;;;;5024893;28;20037;-59
2022/01/28 08:35:16;;;;;;;7.43;5.15;;;3.00;99.90;;;;;;5014563;28;20105;-58
2022/01/28 08:37:42;;;;;;;14.30;6.55;;;3.00;99.90;;;;;;5018317;28;20135;-59
2022/01/28 08:40:09;;;;;;;10.10;6.03;;;3.00;99.90;;;;;;5028797;28;20045;-56
2022/01/28 08:42:36;;;;;;;13.18;5.88;;;3.00;99.90;;;;;;5033274;28;20018;-56
2022/01/28 08:45:03;;;;;;;8.05;5.47;;;2.90;99.90;;;;;;5032113;28;20029;-55
2022/01/28 08:47:28;;;;;;;6.78;5.53;;;3.00;99.90;;;;;;5024401;28;20050;-57
2022/01/28 08:49:54;;;;;;;8.65;5.43;;;3.00;99.90;;;;;;5016865;28;20033;-56
2022/01/28 08:52:20;;;;;;;9.45;5.75;;;3.20;99.90;;;;;;5029528;28;20108;-57
2022/01/28 08:54:47;;;;;;;7.55;5.85;;;3.20;99.90;;;;;;5029405;28;20440;-56
2022/01/28 08:57:13;;;;;;;8.25;5.47;;;3.10;99.90;;;;;;5011942;28;20014;-55
2022/01/28 08:59:40;;;;;;;11.70;6.70;;;3.10;99.90;;;;;;5014883;28;20076;-57
2022/01/28 09:02:06;;;;;;;5.38;4.88;;;3.00;99.90;;;;;;5013017;28;20105;-58
2022/01/28 09:04:31;;;;;;;15.98;7.97;;;3.10;99.90;;;;;;5012668;28;20022;-56
2022/01/28 09:06:57;;;;;;;13.18;7.28;;;3.10;99.90;;;;;;5012836;28;20561;-57
2022/01/28 09:09:23;;;;;;;15.48;8.18;;;3.10;99.90;;;;;;5018004;28;20040;-56
2022/01/28 09:14:24;;;;;;;17.25;9.30;;;3.10;99.90;;;;;;5052414;28;20059;-58
2022/01/28 09:16:52;;;;;;;14.88;7.85;;;3.10;99.90;;;;;;5020274;28;20021;-57
2022/01/28 09:19:18;;;;;;;10.88;6.28;;;3.20;99.90;;;;;;5014538;28;20026;-56
2022/01/28 09:21:44;;;;;;;12.35;6.78;;;3.10;99.90;;;;;;5013226;28;20076;-56
2022/01/28 09:24:10;;;;;;;16.48;10.20;;;3.10;99.90;;;;;;5013367;28;20036;-65
2022/01/28 09:26:36;;;;;;;34.50;14.95;;;3.10;99.90;;;;;;5012768;28;20057;-60
2022/01/28 09:29:03;;;;;;;11.82;6.07;;;3.20;99.90;;;;;;5012358;28;20022;-61
2022/01/28 09:31:28;;;;;;;8.43;6.68;;;3.30;99.90;;;;;;5031189;28;20025;-60
2022/01/28 09:33:54;;;;;;;12.32;6.35;;;3.20;99.90;;;;;;5031001;28;20140;-61
2022/01/28 09:36:20;;;;;;;13.68;6.70;;;3.40;99.90;;;;;;5030638;28;20029;-61
2022/01/28 09:38:46;;;;;;;14.32;5.70;;;3.40;99.90;;;;;;5015923;28;20017;-61
2022/01/28 09:41:11;;;;;;;8.65;5.82;;;3.50;99.90;;;;;;5015894;28;20029;-61
2022/01/28 09:43:37;;;;;;;11.25;6.65;;;3.70;99.90;;;;;;5012355;28;20157;-61
2022/01/28 09:46:04;;;;;;;7.93;5.30;;;3.70;99.90;;;;;;5012313;28;20034;-62
2022/01/28 09:48:31;;;;;;;11.27;4.90;;;4.30;99.90;;;;;;5012597;28;20079;-61
2022/01/28 09:51:01;;;;;;;10.10;4.97;;;4.50;99.90;;;;;;5011861;28;20366;-61
2022/01/28 09:53:27;;;;;;;9.23;5.00;;;4.40;99.90;;;;;;5012281;28;20557;-61
2022/01/28 09:55:53;;;;;;;9.45;5.07;;;4.20;99.90;;;;;;5012895;28;20026;-61
2022/01/28 09:58:19;;;;;;;12.32;6.45;;;4.00;99.90;;;;;;5013173;28;21112;-61
2022/01/28 10:00:45;;;;;;;6.28;5.10;;;4.00;99.90;;;;;;5013113;28;20102;-60
2022/01/28 10:03:15;;;;;;;8.43;4.25;;;3.60;99.90;;;;;;5013038;28;20018;-61
2022/01/28 10:05:43;;;;;;;8.82;5.00;;;3.50;99.90;;;;;;5013002;28;20022;-61
2022/01/28 10:08:26;;;;;;;5.18;4.65;;;3.30;99.90;;;;;;5013118;28;20025;-62
2022/01/28 10:10:54;;;;;;;11.15;5.15;;;3.20;99.90;;;;;;5046975;28;20381;-61
2022/01/28 10:13:33;;;;;;;9.73;5.20;;;3.20;99.90;;;;;;5052360;28;20036;-60
2022/01/28 10:15:59;;;;;;;5.25;4.75;;;3.20;99.90;;;;;;5029635;28;20054;-60
2022/01/28 10:18:38;;;;;;;5.03;4.18;;;3.20;99.90;;;;;;5016171;28;20068;-60
2022/01/28 10:21:21;;;;;;;4.97;4.30;;;3.10;99.90;;;;;;5012689;28;20022;-60
2022/01/28 10:23:56;;;;;;;4.97;4.32;;;3.10;99.90;;;;;;5012364;28;20029;-60
2022/01/28 10:26:29;;;;;;;5.20;4.70;;;2.90;99.90;;;;;;5012805;28;20060;-62
2022/01/28 10:28:55;;;;;;;6.75;5.38;;;3.00;99.90;;;;;;5012455;28;20097;-60
2022/01/28 10:31:20;;;;;;;7.15;4.63;;;2.90;99.90;;;;;;5012541;28;20419;-61
2022/01/28 10:33:46;;;;;;;11.60;5.65;;;3.00;99.90;;;;;;5011788;28;20505;-61
2022/01/28 10:36:22;;;;;;;9.20;4.78;;;2.90;99.90;;;;;;5012153;28;20018;-60
2022/01/28 10:38:48;;;;;;;8.93;4.43;;;3.10;99.90;;;;;;5015875;28;20063;-61
2022/01/28 10:41:18;;;;;;;5.22;4.70;;;3.70;99.90;;;;;;5031938;28;20411;-61
2022/01/28 10:43:47;;;;;;;4.55;4.15;;;3.90;99.90;;;;;;5031823;28;20060;-60
2022/01/28 10:46:29;;;;;;;7.40;5.07;;;4.00;99.90;;;;;;5032031;28;20049;-61
2022/01/28 10:49:01;;;;;;;6.82;5.20;;;3.70;99.90;;;;;;5031400;28;20026;-60
2022/01/28 10:51:42;;;;;;;10.20;6.68;;;3.70;99.90;;;;;;5027952;28;20129;-61
2022/01/28 10:54:13;;;;;;;13.50;10.57;;;3.60;99.90;;;;;;5012142;28;20034;-60
2022/01/28 10:57:08;;;;;;;9.40;7.45;;;3.60;99.90;;;;;;5011937;28;20045;-60
2022/01/28 10:59:36;;;;;;;8.00;5.35;;;3.40;99.90;;;;;;5011787;28;20042;-60
2022/01/28 11:02:03;;;;;;;5.45;4.95;;;3.40;99.90;;;;;;5011919;28;20026;-61
2022/01/28 11:04:29;;;;;;;13.25;4.55;;;3.30;99.90;;;;;;5015132;28;20096;-60
2022/01/28 11:06:58;;;;;;;9.65;4.63;;;3.20;99.90;;;;;;5025054;28;20468;-66
2022/01/28 11:09:24;;;;;;;5.55;4.38;;;2.60;99.90;;;;;;5030935;28;20048;-60
2022/01/28 11:11:51;;;;;;;11.95;5.60;;;2.20;99.90;;;;;;5011627;28;20029;-60
2022/01/28 11:14:18;;;;;;;8.98;4.82;;;2.00;99.90;;;;;;5011697;28;20034;-59
2022/01/28 11:16:44;;;;;;;7.75;5.20;;;2.00;99.90;;;;;;5011811;28;20030;-60
2022/01/28 11:19:12;;;;;;;5.70;3.97;;;2.20;99.90;;;;;;5011997;28;20030;-59
2022/01/28 11:21:49;;;;;;;6.70;4.63;;;2.40;99.90;;;;;;5011717;28;20040;-59
2022/01/28 11:24:34;;;;;;;7.10;4.80;;;2.40;99.90;;;;;;5012218;28;20021;-60
2022/01/28 11:27:12;;;;;;;5.25;4.60;;;2.50;99.90;;;;;;5011731;28;20497;-61
2022/01/28 11:29:38;;;;;;;6.78;5.60;;;2.50;99.90;;;;;;5011753;28;20026;-61
2022/01/28 11:32:15;;;;;;;6.70;5.57;;;2.60;99.90;;;;;;5011547;28;20165;-60
2022/01/28 11:35:04;;;;;;;6.95;5.40;;;2.30;99.90;;;;;;5017641;28;20014;-61
2022/01/28 11:37:34;;;;;;;7.85;4.90;;;2.30;99.90;;;;;;5031341;28;20109;-55
2022/01/28 11:40:14;;;;;;;7.68;4.50;;;2.30;99.90;;;;;;5029513;28;20056;-60
2022/01/28 11:42:41;;;;;;;9.43;4.63;;;2.30;99.90;;;;;;5031130;28;20030;-60
2022/01/28 11:45:09;;;;;;;10.98;5.45;;;2.50;99.90;;;;;;5018556;28;21184;-61
2022/01/28 11:47:55;;;;;;;8.60;5.07;;;2.70;99.90;;;;;;5015235;28;20030;-61
2022/01/28 11:50:23;;;;;;;7.72;4.22;;;3.30;99.90;;;;;;5015846;28;20543;-60
2022/01/28 11:52:51;;;;;;;11.05;4.57;;;4.40;99.90;;;;;;5013874;28;20484;-61
2022/01/28 11:55:17;;;;;;;16.52;7.35;;;4.10;99.90;;;;;;5025737;28;20060;-60
2022/01/28 11:57:56;;;;;;;5.85;3.85;;;3.90;99.90;;;;;;5034552;28;20033;-60
2022/01/28 12:00:47;;;;;;;17.50;10.13;;;4.00;99.90;;;;;;5011601;28;20022;-61
2022/01/28 12:03:20;;;;;;;7.30;4.35;;;4.00;99.90;;;;;;5023848;28;20022;-60
2022/01/28 12:05:46;;;;;;;;;;;4.80;99.90;;;;;;5004417;28;20048;-60
2022/01/28 12:08:13;;;;;;;12.07;4.18;;;4.50;99.90;;;;;;5023913;28;20011;-60
2022/01/28 12:10:45;;;;;;;12.80;7.20;;;4.40;99.90;;;;;;5022730;28;20033;-60
2022/01/28 12:13:15;;;;;;;8.20;4.63;;;4.70;99.90;;;;;;5021723;28;20424;-61
2022/01/28 12:16:09;;;;;;;7.63;3.80;;;4.80;99.90;;;;;;5004878;28;20073;-60
2022/01/28 12:18:55;;;;;;;5.65;4.10;;;5.40;99.90;;;;;;5022300;28;20033;-60
2022/01/28 12:21:28;;;;;;;8.07;4.13;;;5.00;99.90;;;;;;5014729;28;20045;-60
2022/01/28 12:24:15;;;;;;;6.65;4.25;;;4.20;99.90;;;;;;5022894;28;20033;-61
2022/01/28 12:27:06;;;;;;;10.43;4.65;;;4.00;99.90;;;;;;5023296;28;20055;-60
2022/01/28 12:29:45;;;;;;;9.02;4.28;;;3.80;99.90;;;;;;5024029;28;20452;-60
2022/01/28 12:32:12;;;;;;;6.80;4.13;;;3.50;99.90;;;;;;5020047;28;20088;-60
2022/01/28 12:34:45;;;;;;;8.20;4.22;;;3.40;99.90;;;;;;5023978;28;20041;-60
2022/01/28 12:37:11;;;;;;;;;;;3.70;99.90;;;;;;5024107;28;20134;-61
2022/01/28 12:39:43;;;;;;;7.75;4.18;;;4.50;99.90;;;;;;5022752;28;20440;-60
2022/01/28 12:44:51;;;;;;;5.53;3.20;;;5.60;99.90;;;;;;5023222;28;20159;-61
2022/01/28 12:47:17;;;;;;;8.32;4.22;;;6.70;99.90;;;;;;5005075;28;20408;-61
2022/01/28 12:49:43;;;;;;;7.78;3.15;;;6.60;98.50;;;;;;5023366;28;20033;-61
2022/01/28 12:52:09;;;;;;;7.40;3.03;;;7.30;93.80;;;;;;5011413;28;20084;-60
2022/01/28 12:54:43;;;;;;;5.40;3.13;;;8.30;91.70;;;;;;5003880;28;22494;-60
2022/01/28 12:57:11;;;;;;;5.03;3.00;;;8.20;90.10;;;;;;5022634;28;20052;-60
2022/01/28 12:59:38;;;;;;;7.43;4.38;;;7.60;89.50;;;;;;5023292;28;20029;-61
2022/01/28 13:02:04;;;;;;;10.15;4.88;;;8.30;86.20;;;;;;5022754;28;20029;-60
2022/01/28 13:04:49;;;;;;;4.38;2.50;;;8.40;82.40;;;;;;5023165;28;20030;-61
2022/01/28 13:09:57;;;;;;;5.03;3.40;;;8.80;77.80;;;;;;5023129;28;20968;-60
2022/01/28 13:12:25;;;;;;;4.47;2.22;;;10.50;67.40;;;;;;5021285;28;20116;-60
2022/01/28 13:14:51;;;;;;;6.55;3.80;;;8.10;69.20;;;;;;5023275;28;20433;-60
2022/01/28 13:17:22;;;;;;;6.10;2.97;;;7.40;70.70;;;;;;5022900;28;20449;-61
2022/01/28 13:19:55;;;;;;;6.35;2.13;;;8.00;72.20;;;;;;5022531;28;20048;-60
2022/01/28 13:22:29;;;;;;;5.32;2.42;;;7.40;70.60;;;;;;5022718;28;20033;-60
2022/01/28 13:24:56;;;;;;;3.85;2.10;;;7.80;65.40;;;;;;5021920;28;20037;-60
2022/01/28 13:27:43;;;;;;;28.08;13.77;;;7.50;65.80;;;;;;5023186;28;20037;-61
2022/01/28 13:30:14;;;;;;;28.23;15.10;;;6.60;68.00;;;;;;5022058;28;20128;-60
2022/01/28 13:32:45;;;;;;;89.13;46.03;;;5.80;70.60;;;;;;5022135;28;20113;-60
2022/01/28 13:35:30;;;;;;;7.43;4.85;;;5.30;73.80;;;;;;5021592;28;20485;-60
2022/01/28 13:38:00;;;;;;;11.50;2.90;;;5.10;72.80;;;;;;5021436;28;20034;-60
2022/01/28 13:40:29;;;;;;;6.72;2.38;;;5.10;72.70;;;;;;5022537;28;20530;-60
2022/01/28 13:43:10;;;;;;;3.88;2.80;;;5.20;75.50;;;;;;5021170;28;20036;-60
2022/01/28 13:45:43;;;;;;;5.03;2.47;;;5.10;72.60;;;;;;5003306;28;20030;-60
2022/01/28 13:48:19;;;;;;;7.13;2.45;;;5.60;74.90;;;;;;5021386;28;20488;-61
2022/01/28 13:50:49;;;;;;;2.83;2.03;;;6.10;70.90;;;;;;5021515;28;20057;-60
2022/01/28 13:56:00;;;;;;;4.97;1.90;;;7.00;70.00;;;;;;5022110;28;20091;-61
2022/01/28 13:58:26;;;;;;;3.63;1.90;;;8.20;66.60;;;;;;5020157;28;20029;-61
2022/01/28 14:00:52;;;;;;;8.38;1.92;;;8.70;63.70;;;;;;5021724;28;20497;-61
2022/01/28 14:03:19;;;;;;;7.60;3.10;;;8.40;62.80;;;;;;5015164;28;20389;-61
2022/01/28 14:06:00;;;;;;;4.30;2.25;;;7.30;65.40;;;;;;5021623;28;20032;-60
2022/01/28 14:08:49;;;;;;;3.38;1.95;;;7.90;65.30;;;;;;5021300;28;20033;-61
2022/01/28 14:11:37;;;;;;;4.57;2.35;;;6.70;67.00;;;;;;5022166;28;20041;-61
2022/01/28 14:14:30;;;;;;;3.85;2.30;;;6.00;69.90;;;;;;5007929;28;20042;-61
2022/01/28 14:16:55;;;;;;;5.32;2.60;;;5.80;71.90;;;;;;5020033;28;20099;-60
2022/01/28 14:19:23;;;;;;;5.90;2.97;;;5.40;72.70;;;;;;5021937;28;20033;-61
2022/01/28 14:21:49;;;;;;;5.78;2.83;;;5.30;75.00;;;;;;5021616;28;20034;-61
2022/01/28 14:24:26;;;;;;;4.30;2.75;;;5.30;75.20;;;;;;5007450;28;20048;-60
2022/01/28 14:27:45;;;;;;;10.27;4.15;;;5.00;77.30;;;;;;5018424;28;20138;-61
2022/01/28 14:32:10;;;;;;;5.18;2.83;;;4.70;83.60;;;;;;5021351;28;20116;-60
2022/01/28 14:34:37;;;;;;;7.30;3.53;;;4.60;86.30;;;;;;5005240;28;20049;-61
2022/01/28 14:37:04;;;;;;;8.43;3.58;;;4.50;87.20;;;;;;5020800;28;20038;-60
2022/01/28 14:39:31;;;;;;;8.90;3.10;;;4.50;91.00;;;;;;5021225;28;20055;-60
2022/01/28 14:42:02;;;;;;;7.82;3.38;;;4.50;92.00;;;;;;5040881;28;20041;-60
2022/01/28 14:44:29;;;;;;;8.48;3.22;;;4.30;92.80;;;;;;5035468;28;22451;-61
2022/01/28 14:46:55;;;;;;;9.07;4.68;;;4.20;93.80;;;;;;5040586;28;20074;-61